Time;durP1;ratioP1;P1;durP2;ratioP2;P2;SDS_P1;SDS_P2;PMS_P1;PMS_P2;Temp;Humidity;BMP_temperature;BMP_pressure;BME280_temperature;BME280_humidity;BME280_pressure;Samples;Min_cycle;Max_cycle;Signal;HPM_P1;HPM_P2
2021/11/17 02:27:05;;;;;;;10.18;6.07;;;18.90;53.10;;;;;;5090359;28;20055;-53
2021/11/17 02:29:49;;;;;;;10.77;5.88;;;18.90;53.20;;;;;;5085596;28;20036;-53
2021/11/17 02:32:38;;;;;;;10.20;5.90;;;19.00;53.20;;;;;;5090899;28;20548;-54
2021/11/17 02:35:33;;;;;;;9.00;5.70;;;19.00;53.20;;;;;;5091963;28;20036;-55
2021/11/17 02:38:17;;;;;;;10.90;5.70;;;18.90;53.20;;;;;;5084914;28;20075;-53
2021/11/17 02:41:00;;;;;;;11.55;6.38;;;18.90;53.30;;;;;;5080996;28;20044;-51
2021/11/17 02:44:06;;;;;;;10.40;6.28;;;18.90;53.20;;;;;;5096845;28;20031;-50
2021/11/17 02:46:50;;;;;;;12.05;7.22;;;18.90;53.20;;;;;;5081428;28;20047;-54
2021/11/17 02:49:35;;;;;;;9.30;6.68;;;18.90;53.20;;;;;;5084562;28;20032;-51
2021/11/17 02:52:20;;;;;;;11.98;6.90;;;18.90;53.30;;;;;;5077866;28;20037;-51
2021/11/17 02:55:11;;;;;;;10.20;6.95;;;18.90;53.30;;;;;;5084739;28;20047;-49
2021/11/17 02:58:02;;;;;;;11.27;5.60;;;18.90;53.40;;;;;;5083957;28;20052;-51
2021/11/17 03:00:57;;;;;;;8.70;6.03;;;18.90;53.40;;;;;;5095597;28;20096;-53
2021/11/17 03:03:38;;;;;;;12.90;5.78;;;18.90;53.40;;;;;;5078956;28;20044;-50
2021/11/17 03:06:24;;;;;;;10.77;5.78;;;18.90;53.50;;;;;;5088530;28;20423;-54
2021/11/17 03:09:06;;;;;;;13.20;5.90;;;18.90;53.50;;;;;;5094675;28;20145;-51
2021/11/17 03:11:47;;;;;;;8.82;5.15;;;18.90;53.50;;;;;;5088029;28;20502;-53
2021/11/17 03:14:42;;;;;;;9.55;5.63;;;18.90;53.60;;;;;;5090689;28;20047;-53
2021/11/17 03:17:26;;;;;;;10.57;5.75;;;18.90;53.50;;;;;;5088161;28;20095;-53
2021/11/17 03:20:09;;;;;;;10.73;6.13;;;18.90;53.50;;;;;;5085806;28;20040;-51
2021/11/17 03:22:48;;;;;;;8.45;5.18;;;18.80;53.50;;;;;;5078611;28;20127;-52
2021/11/17 03:25:29;;;;;;;7.28;5.40;;;18.80;53.50;;;;;;5066036;28;20507;-52
2021/11/17 03:28:09;;;;;;;8.15;5.35;;;18.80;53.50;;;;;;5061517;28;20052;-50
2021/11/17 03:31:08;;;;;;;5.93;5.13;;;18.80;53.50;;;;;;5065661;28;20419;-52
2021/11/17 03:34:06;;;;;;;8.45;5.10;;;18.90;53.50;;;;;;5063820;28;20044;-48
2021/11/17 03:37:08;;;;;;;8.30;4.68;;;18.80;53.50;;;;;;5062823;28;20040;-52
2021/11/17 03:39:58;;;;;;;11.48;5.82;;;18.80;53.60;;;;;;5063219;28;20049;-49
2021/11/17 03:42:49;;;;;;;7.53;4.88;;;18.80;53.60;;;;;;5077044;28;20047;-53
2021/11/17 03:45:49;;;;;;;9.50;5.28;;;18.80;53.60;;;;;;5069233;28;20119;-51
2021/11/17 03:48:35;;;;;;;8.80;5.32;;;18.80;53.60;;;;;;5069529;28;20041;-50
2021/11/17 03:51:21;;;;;;;8.48;5.63;;;18.80;53.60;;;;;;5065337;28;20045;-54
2021/11/17 03:54:02;;;;;;;8.98;5.13;;;18.80;53.60;;;;;;5057879;28;20044;-52
2021/11/17 03:57:04;;;;;;;8.35;5.13;;;18.80;53.60;;;;;;5068803;28;20112;-49
2021/11/17 03:59:50;;;;;;;8.10;5.28;;;18.80;53.70;;;;;;5070622;28;20116;-52
2021/11/17 04:02:37;;;;;;;6.35;4.97;;;18.80;53.60;;;;;;5069316;28;20505;-52
2021/11/17 04:05:18;;;;;;;10.38;5.22;;;18.80;53.60;;;;;;5068457;28;20043;-51
2021/11/17 04:08:07;;;;;;;8.32;5.68;;;18.80;53.70;;;;;;5058674;28;20040;-53
2021/11/17 04:10:55;;;;;;;6.47;4.70;;;18.80;53.70;;;;;;5075869;28;20072;-51
2021/11/17 04:13:32;;;;;;;4.70;3.53;;;18.80;53.60;;;;;;5064760;28;20119;-50
2021/11/17 04:16:21;;;;;;;7.13;4.85;;;18.80;53.70;;;;;;5074810;28;20067;-49
2021/11/17 04:19:02;;;;;;;7.10;5.35;;;18.80;53.70;;;;;;5069040;28;20071;-51
2021/11/17 04:21:45;;;;;;;8.50;4.72;;;18.80;53.70;;;;;;5078309;28;20123;-51
2021/11/17 04:24:26;;;;;;;6.35;4.70;;;18.80;53.80;;;;;;5086419;28;20043;-52
2021/11/17 04:27:17;;;;;;;7.68;4.57;;;18.70;53.70;;;;;;5072610;28;20761;-50
2021/11/17 04:30:08;;;;;;;8.63;4.05;;;18.80;53.70;;;;;;5069459;28;20521;-52
2021/11/17 04:32:57;;;;;;;5.72;3.85;;;18.80;53.70;;;;;;5075806;28;20039;-51
2021/11/17 04:35:49;;;;;;;5.18;3.67;;;18.70;53.70;;;;;;5072845;28;20424;-52
2021/11/17 04:38:53;;;;;;;7.53;4.20;;;18.80;53.80;;;;;;5064537;28;20159;-52
2021/11/17 04:41:46;;;;;;;7.47;4.70;;;18.80;53.70;;;;;;5073914;28;20059;-54
2021/11/17 04:44:31;;;;;;;6.07;3.38;;;18.80;53.90;;;;;;5067060;28;20155;-54
2021/11/17 04:47:14;;;;;;;4.15;3.58;;;18.70;53.90;;;;;;5073934;28;20040;-54
2021/11/17 04:49:59;;;;;;;6.22;4.13;;;18.80;54.00;;;;;;5061493;28;20489;-52
2021/11/17 04:52:46;;;;;;;6.13;4.38;;;18.80;53.90;;;;;;5074516;28;20052;-50
2021/11/17 04:55:38;;;;;;;4.85;4.20;;;18.80;53.90;;;;;;5066820;28;20040;-50
2021/11/17 04:58:24;;;;;;;7.75;3.83;;;18.80;54.00;;;;;;5054710;28;20066;-52
2021/11/17 05:01:12;;;;;;;4.70;3.75;;;18.80;54.00;;;;;;5064172;28;20036;-52
2021/11/17 05:03:51;;;;;;;5.20;3.38;;;18.80;54.00;;;;;;5066232;28;20041;-54
2021/11/17 05:06:42;;;;;;;3.72;2.80;;;18.80;54.00;;;;;;5080395;28;20040;-48
2021/11/17 05:09:18;;;;;;;4.43;2.42;;;18.80;54.00;;;;;;5077878;28;20043;-51
2021/11/17 05:11:57;;;;;;;4.70;3.05;;;18.80;54.00;;;;;;5071134;28;20063;-49
2021/11/17 05:14:34;;;;;;;5.60;3.13;;;18.80;54.00;;;;;;5076423;28;20453;-50
2021/11/17 05:17:15;;;;;;;4.07;3.13;;;18.80;54.00;;;;;;5073186;28;20128;-48
2021/11/17 05:19:50;;;;;;;4.07;2.58;;;18.80;54.00;;;;;;5074979;28;20088;-51
2021/11/17 05:22:29;;;;;;;4.35;3.08;;;18.80;54.00;;;;;;5055776;28;20413;-51
2021/11/17 05:25:11;;;;;;;5.25;2.88;;;18.80;54.00;;;;;;5058524;28;20041;-51
2021/11/17 05:28:00;;;;;;;3.22;2.63;;;18.80;54.00;;;;;;5081613;28;20049;-49
2021/11/17 05:30:47;;;;;;;3.67;2.53;;;18.80;54.00;;;;;;5074223;28;20100;-49
2021/11/17 05:33:41;;;;;;;4.20;2.88;;;18.80;54.10;;;;;;5079564;28;20048;-55
2021/11/17 05:36:20;;;;;;;3.85;2.75;;;18.80;54.00;;;;;;5084085;28;20059;-55
2021/11/17 05:39:16;;;;;;;3.85;2.55;;;18.80;54.10;;;;;;5075979;28;20045;-57
2021/11/17 05:41:58;;;;;;;3.72;2.22;;;18.80;54.10;;;;;;5076821;28;20048;-51
2021/11/17 05:44:41;;;;;;;3.70;2.38;;;18.80;54.10;;;;;;5077246;28;20385;-51
2021/11/17 05:47:29;;;;;;;2.88;2.60;;;18.70;54.10;;;;;;5078847;28;20453;-54
2021/11/17 05:50:16;;;;;;;6.65;2.15;;;18.80;54.10;;;;;;5078614;28;20044;-50
2021/11/17 05:52:56;;;;;;;4.00;2.63;;;18.80;54.10;;;;;;5074502;28;20055;-51
2021/11/17 05:55:47;;;;;;;3.35;2.63;;;18.80;54.20;;;;;;5076157;28;20114;-55
2021/11/17 05:58:30;;;;;;;5.28;3.40;;;18.80;54.10;;;;;;5077101;28;20051;-53
2021/11/17 06:01:23;;;;;;;3.08;2.25;;;18.80;54.10;;;;;;5077316;28;20036;-49
2021/11/17 06:03:56;;;;;;;5.55;2.03;;;18.80;54.10;;;;;;5076200;28;20041;-54
2021/11/17 06:06:23;;;;;;;2.22;1.88;;;18.80;54.20;;;;;;5079073;28;20101;-52
2021/11/17 06:08:50;;;;;;;3.63;1.90;;;18.80;54.10;;;;;;5075796;28;20432;-51
2021/11/17 06:11:20;;;;;;;2.60;2.13;;;18.80;54.10;;;;;;5077524;28;20052;-54
2021/11/17 06:13:48;;;;;;;3.08;2.30;;;18.80;54.10;;;;;;5074739;28;20089;-53
2021/11/17 06:16:15;;;;;;;3.17;1.70;;;18.80;54.10;;;;;;5069195;28;20044;-51
2021/11/17 06:18:44;;;;;;;3.85;2.35;;;18.80;54.10;;;;;;5080789;28;20184;-51
2021/11/17 06:21:13;;;;;;;3.85;2.13;;;18.80;54.10;;;;;;5051752;28;20070;-54
2021/11/17 06:23:46;;;;;;;2.67;2.42;;;18.80;54.10;;;;;;5061255;28;20063;-54
2021/11/17 06:26:16;;;;;;;3.17;2.30;;;18.80;54.10;;;;;;5063286;28;20040;-51
2021/11/17 06:28:44;;;;;;;2.55;1.98;;;18.80;54.10;;;;;;5068413;28;20036;-48
2021/11/17 06:31:12;;;;;;;2.72;1.73;;;18.80;54.10;;;;;;5075363;28;20114;-52
2021/11/17 06:33:39;;;;;;;2.75;2.03;;;18.90;54.20;;;;;;5073977;28;20062;-49
2021/11/17 06:36:06;;;;;;;2.25;1.65;;;18.80;54.10;;;;;;5074204;28;20039;-56
2021/11/17 06:38:33;;;;;;;2.15;1.70;;;18.80;54.10;;;;;;5050527;28;20047;-50
2021/11/17 06:41:00;;;;;;;3.90;2.13;;;18.90;54.10;;;;;;5065373;28;20130;-52
2021/11/17 06:43:27;;;;;;;1.98;1.80;;;18.90;54.10;;;;;;5066673;28;20040;-54
2021/11/17 06:45:57;;;;;;;2.63;2.40;;;18.90;54.10;;;;;;5078345;28;20131;-55
2021/11/17 06:48:26;;;;;;;1.67;1.50;;;18.90;54.10;;;;;;5068092;28;20497;-55
2021/11/17 06:50:55;;;;;;;4.43;2.33;;;18.90;54.20;;;;;;5067741;28;20075;-55
2021/11/17 06:53:22;;;;;;;2.90;2.50;;;18.90;54.20;;;;;;5069426;28;20048;-51
2021/11/17 06:55:49;;;;;;;3.47;2.22;;;18.90;54.20;;;;;;5070875;28;20574;-55
2021/11/17 06:58:16;;;;;;;4.38;1.48;;;18.80;54.10;;;;;;5062321;28;20063;-55
2021/11/17 07:00:46;;;;;;;1.92;1.73;;;18.90;54.20;;;;;;5062685;28;20047;-53
2021/11/17 07:03:20;;;;;;;3.13;2.57;;;18.90;54.20;;;;;;5065767;28;20398;-55
2021/11/17 07:05:47;;;;;;;4.70;2.03;;;18.80;54.20;;;;;;5060819;28;20735;-52
2021/11/17 07:08:15;;;;;;;3.03;2.30;;;18.80;54.20;;;;;;5063721;28;20520;-55
2021/11/17 07:10:42;;;;;;;1.85;1.70;;;18.80;54.20;;;;;;5064373;28;20045;-54
2021/11/17 07:13:09;;;;;;;3.00;1.92;;;18.90;54.30;;;;;;5062637;28;20505;-54
2021/11/17 07:15:38;;;;;;;2.58;2.15;;;18.80;54.20;;;;;;5070865;28;20037;-53
2021/11/17 07:18:07;;;;;;;5.93;2.05;;;18.80;54.20;;;;;;5082821;28;20119;-53
2021/11/17 07:20:37;;;;;;;2.28;1.73;;;18.80;54.20;;;;;;5066446;28;20501;-53
2021/11/17 07:23:05;;;;;;;3.10;1.70;;;18.80;54.20;;;;;;5068724;28;20390;-55
2021/11/17 07:25:38;;;;;;;4.80;1.98;;;18.80;54.20;;;;;;5062548;28;20139;-53
2021/11/17 07:28:06;;;;;;;2.30;2.10;;;18.90;54.30;;;;;;5062805;28;20149;-51
2021/11/17 07:30:36;;;;;;;3.63;1.98;;;18.80;54.20;;;;;;5060656;28;20041;-54
2021/11/17 07:33:04;;;;;;;3.60;1.40;;;18.80;54.20;;;;;;5061960;28;20049;-49
2021/11/17 07:35:33;;;;;;;3.60;2.92;;;18.80;54.20;;;;;;5060828;28;20103;-51
2021/11/17 07:38:03;;;;;;;3.22;1.98;;;18.90;54.30;;;;;;5064135;28;20093;-53
2021/11/17 07:40:36;;;;;;;3.00;1.65;;;18.80;54.20;;;;;;5043215;28;20036;-50
2021/11/17 07:43:13;;;;;;;1.85;1.60;;;18.80;54.20;;;;;;5066808;28;20056;-56
2021/11/17 07:45:43;;;;;;;3.03;1.73;;;18.90;54.30;;;;;;5052265;28;20125;-51
2021/11/17 07:48:12;;;;;;;2.75;1.80;;;18.90;54.30;;;;;;5073782;28;20044;-50
2021/11/17 07:50:40;;;;;;;3.08;2.03;;;18.90;54.40;;;;;;5071555;28;20032;-52
2021/11/17 07:53:11;;;;;;;2.80;2.10;;;18.90;54.40;;;;;;5072425;28;20043;-52
2021/11/17 07:55:40;;;;;;;2.88;1.80;;;18.90;54.40;;;;;;5066413;28;20068;-51
2021/11/17 07:58:08;;;;;;;7.60;1.83;;;18.90;54.40;;;;;;5070037;28;20053;-55
2021/11/17 08:00:38;;;;;;;1.85;1.65;;;18.90;54.40;;;;;;5065407;28;20515;-52
2021/11/17 08:03:06;;;;;;;3.03;2.25;;;18.90;54.40;;;;;;5078548;28;20103;-52
2021/11/17 08:05:33;;;;;;;3.30;1.98;;;18.90;54.40;;;;;;5080101;28;20044;-53
2021/11/17 08:08:01;;;;;;;2.45;1.55;;;18.90;54.30;;;;;;5077586;28;20500;-52
2021/11/17 08:10:33;;;;;;;2.65;2.22;;;18.90;54.40;;;;;;5078786;28;20834;-53
2021/11/17 08:13:01;;;;;;;3.33;1.45;;;18.90;54.40;;;;;;5076654;28;20041;-49
2021/11/17 08:15:31;;;;;;;2.55;2.15;;;18.90;54.40;;;;;;5082464;28;20059;-54
2021/11/17 08:17:58;;;;;;;5.38;2.25;;;18.90;54.40;;;;;;5076537;28;20054;-49
2021/11/17 08:20:26;;;;;;;6.38;1.98;;;18.90;54.40;;;;;;5079372;28;20459;-48
2021/11/17 08:22:55;;;;;;;2.22;1.63;;;18.90;54.40;;;;;;5077326;28;20079;-51
2021/11/17 08:25:25;;;;;;;1.85;1.58;;;18.90;54.40;;;;;;5062070;28;20044;-49
2021/11/17 08:27:54;;;;;;;4.68;2.20;;;18.90;54.40;;;;;;5079448;28;20223;-54
2021/11/17 08:30:24;;;;;;;3.15;1.95;;;18.90;54.40;;;;;;5083839;28;20101;-52
2021/11/17 08:32:51;;;;;;;6.97;1.63;;;18.90;54.40;;;;;;5078555;28;20032;-52
2021/11/17 08:35:21;;;;;;;5.55;2.95;;;18.90;54.40;;;;;;5076986;28;20476;-52
2021/11/17 08:37:53;;;;;;;6.93;1.85;;;18.90;54.40;;;;;;5082408;28;20127;-52
2021/11/17 08:40:27;;;;;;;7.85;1.67;;;18.90;54.50;;;;;;5079712;28;20040;-52
2021/11/17 08:42:56;;;;;;;3.95;1.40;;;19.00;54.60;;;;;;5076309;28;20107;-56
2021/11/17 08:45:25;;;;;;;6.88;1.98;;;19.00;54.70;;;;;;5083988;28;20044;-60
2021/11/17 08:47:53;;;;;;;7.63;1.33;;;19.00;54.80;;;;;;5074845;28;20768;-61
2021/11/17 08:50:23;;;;;;;3.35;2.50;;;19.00;54.80;;;;;;5073091;28;20117;-61
2021/11/17 08:52:52;;;;;;;7.85;2.00;;;19.00;54.80;;;;;;5077125;28;20055;-61
2021/11/17 08:55:19;;;;;;;12.55;2.03;;;19.00;54.70;;;;;;5061837;28;20132;-62
2021/11/17 08:57:47;;;;;;;5.30;1.40;;;19.00;54.70;;;;;;5078902;28;20040;-59
2021/11/17 09:00:20;;;;;;;3.65;1.63;;;19.00;54.60;;;;;;5083405;28;20048;-61
2021/11/17 09:02:51;;;;;;;2.60;2.10;;;19.10;54.60;;;;;;5075410;28;20044;-62
2021/11/17 09:05:21;;;;;;;7.25;2.83;;;19.00;54.50;;;;;;5078219;28;20524;-60
2021/11/17 09:07:49;;;;;;;6.20;3.85;;;19.00;54.50;;;;;;5074000;28;20500;-61
2021/11/17 09:10:20;;;;;;;4.88;3.03;;;19.10;54.50;;;;;;5081585;28;20047;-59
2021/11/17 09:12:49;;;;;;;5.82;2.30;;;19.10;54.50;;;;;;5079050;28;20065;-57
2021/11/17 09:15:20;;;;;;;5.22;2.67;;;19.00;54.40;;;;;;5082975;28;20036;-58
2021/11/17 09:17:47;;;;;;;3.92;2.67;;;19.10;54.40;;;;;;5062303;28;20428;-59
2021/11/17 09:20:17;;;;;;;4.97;3.22;;;19.00;54.30;;;;;;5065214;28;20056;-58
2021/11/17 09:22:45;;;;;;;7.05;2.10;;;19.10;54.30;;;;;;5068018;28;20040;-58
2021/11/17 09:25:13;;;;;;;5.82;2.10;;;19.10;54.30;;;;;;5068913;28;20421;-59
2021/11/17 09:27:41;;;;;;;4.45;2.25;;;19.10;54.30;;;;;;5065189;28;20036;-59
2021/11/17 09:30:11;;;;;;;6.07;1.95;;;19.10;54.20;;;;;;5065992;28;20045;-58
2021/11/17 09:32:41;;;;;;;3.17;2.40;;;19.10;54.20;;;;;;5061765;28;20040;-58
2021/11/17 09:35:11;;;;;;;8.55;2.58;;;19.10;54.10;;;;;;5064280;28;20044;-59
2021/11/17 09:37:53;;;;;;;3.15;1.70;;;19.10;54.10;;;;;;5066241;28;20047;-59
2021/11/17 09:40:23;;;;;;;3.38;2.63;;;19.20;54.10;;;;;;5065279;28;20045;-59
2021/11/17 09:42:51;;;;;;;5.38;1.80;;;19.20;54.10;;;;;;5060226;28;20124;-58
2021/11/17 09:45:21;;;;;;;3.28;2.20;;;19.20;54.10;;;;;;5069596;28;20051;-59
2021/11/17 09:47:53;;;;;;;5.68;2.75;;;19.20;54.00;;;;;;5070517;28;20091;-59
2021/11/17 09:50:31;;;;;;;8.27;1.98;;;19.20;54.00;;;;;;5068468;28;20498;-58
2021/11/17 09:53:02;;;;;;;8.95;1.80;;;19.20;54.40;;;;;;5065447;28;20047;-63
2021/11/17 09:55:35;;;;;;;7.45;2.95;;;19.20;54.70;;;;;;5067525;28;20035;-64
2021/11/17 09:58:06;;;;;;;6.15;2.75;;;19.30;54.90;;;;;;5064667;28;20036;-63
2021/11/17 10:00:44;;;;;;;10.20;2.25;;;19.30;55.00;;;;;;5048660;28;20825;-64
2021/11/17 10:03:27;;;;;;;7.28;2.47;;;19.30;55.00;;;;;;5069740;28;20726;-64
2021/11/17 10:14:46;;;;;;;3.28;2.65;;;19.40;55.10;;;;;;5034112;28;20040;-65
2021/11/17 10:17:41;;;;;;;5.07;2.45;;;19.40;55.10;;;;;;5039295;28;20044;-65
2021/11/17 10:20:18;;;;;;;7.05;2.45;;;19.50;55.10;;;;;;5023076;28;20072;-66
2021/11/17 10:22:48;;;;;;;3.10;1.48;;;19.50;55.20;;;;;;5039013;28;20588;-65
2021/11/17 10:25:17;;;;;;;6.22;2.15;;;19.50;55.20;;;;;;5038760;28;20069;-65
2021/11/17 10:27:51;;;;;;;2.85;2.08;;;19.50;55.10;;;;;;5036565;28;20045;-65
2021/11/17 10:30:31;;;;;;;2.67;1.48;;;19.50;55.10;;;;;;5035187;28;20512;-65
2021/11/17 10:33:14;;;;;;;2.70;2.20;;;19.50;55.10;;;;;;5040433;28;20064;-66
2021/11/17 10:35:46;;;;;;;4.35;1.85;;;19.60;55.10;;;;;;5022792;28;20418;-64
2021/11/17 10:38:20;;;;;;;4.63;1.73;;;19.60;55.10;;;;;;5036042;28;20056;-68
2021/11/17 10:40:53;;;;;;;5.45;2.45;;;19.60;55.10;;;;;;5033925;28;20533;-66
2021/11/17 10:43:25;;;;;;;2.17;1.55;;;19.60;55.00;;;;;;5037217;28;20136;-69
2021/11/17 10:45:58;;;;;;;2.80;1.83;;;19.60;55.10;;;;;;5036808;28;20048;-68
2021/11/17 10:48:35;;;;;;;6.15;1.90;;;19.60;55.00;;;;;;5037068;28;20115;-68
2021/11/17 10:51:14;;;;;;;3.72;1.63;;;19.60;55.00;;;;;;5023493;28;20504;-67
2021/11/17 10:53:41;;;;;;;2.78;2.05;;;19.70;55.00;;;;;;5075609;28;20090;-67
2021/11/17 10:56:13;;;;;;;2.45;1.77;;;19.60;54.90;;;;;;5068559;28;20131;-67
2021/11/17 10:58:44;;;;;;;2.25;1.48;;;19.70;54.90;;;;;;5062445;28;20105;-66
2021/11/17 11:01:27;;;;;;;1.45;1.30;;;19.70;54.80;;;;;;5062691;28;20043;-66
2021/11/17 11:03:58;;;;;;;1.33;1.13;;;19.70;54.80;;;;;;5064136;28;20472;-64
2021/11/17 11:06:31;;;;;;;7.25;1.60;;;19.70;54.70;;;;;;5065166;28;20136;-62
2021/11/17 11:09:02;;;;;;;3.90;2.10;;;19.80;54.70;;;;;;5069745;28;20090;-63
2021/11/17 11:11:40;;;;;;;1.33;1.23;;;19.80;54.70;;;;;;5046961;28;20089;-65
2021/11/17 11:14:11;;;;;;;5.70;1.80;;;19.80;54.60;;;;;;5066457;28;20121;-68
2021/11/17 11:16:42;;;;;;;5.55;2.72;;;19.80;54.70;;;;;;5064817;28;20092;-61
2021/11/17 11:19:31;;;;;;;5.13;0.80;;;19.80;54.70;;;;;;5076199;28;20122;-58
2021/11/17 11:22:10;;;;;;;8.15;2.08;;;19.90;54.70;;;;;;5078916;28;20041;-59
2021/11/17 11:24:47;;;;;;;6.47;1.95;;;19.90;54.60;;;;;;5072184;28;20048;-59
2021/11/17 11:27:18;;;;;;;4.90;1.98;;;19.80;54.50;;;;;;5071224;28;20114;-58
2021/11/17 11:29:48;;;;;;;5.55;1.02;;;19.80;54.50;;;;;;5073632;28;20128;-59
2021/11/17 11:32:45;;;;;;;3.58;1.90;;;19.90;54.50;;;;;;5071885;28;20530;-58
2021/11/17 11:35:22;;;;;;;9.05;2.95;;;19.90;54.30;;;;;;5068352;28;20037;-58
2021/11/17 11:38:05;;;;;;;6.63;1.05;;;19.90;54.50;;;;;;5074902;28;20067;-58
2021/11/17 11:41:03;;;;;;;2.85;1.52;;;20.00;54.30;;;;;;5066110;28;20050;-59
2021/11/17 11:43:30;;;;;;;4.80;1.27;;;20.00;54.20;;;;;;5057391;28;20056;-58
2021/11/17 11:46:28;;;;;;;10.00;1.55;;;20.10;54.10;;;;;;5065602;28;20037;-58
2021/11/17 11:49:32;;;;;;;3.35;1.50;;;20.10;53.90;;;;;;5069292;28;20040;-59
2021/11/17 11:52:14;;;;;;;2.58;1.00;;;20.30;53.80;;;;;;5062980;28;20053;-58
2021/11/17 11:55:19;;;;;;;2.05;0.75;;;20.30;53.60;;;;;;5083991;28;20135;-59
2021/11/17 11:57:49;;;;;;;2.75;1.20;;;20.30;53.40;;;;;;5071163;28;20043;-59
2021/11/17 12:00:21;;;;;;;4.28;1.00;;;20.40;53.40;;;;;;5072533;28;20044;-58
2021/11/17 12:02:52;;;;;;;2.13;0.90;;;20.50;53.20;;;;;;5067654;28;20068;-59
2021/11/17 12:05:29;;;;;;;13.90;1.10;;;20.50;53.20;;;;;;5066294;28;20119;-55
2021/11/17 12:08:00;;;;;;;6.18;1.65;;;20.60;53.60;;;;;;5071907;28;20037;-62
2021/11/17 12:10:32;;;;;;;4.95;2.15;;;20.60;54.20;;;;;;5070016;28;20105;-59
2021/11/17 12:13:11;;;;;;;8.40;1.00;;;20.70;54.90;;;;;;5068602;28;20044;-62
2021/11/17 12:15:54;;;;;;;7.60;1.65;;;20.80;55.20;;;;;;5069323;28;20056;-62
2021/11/17 12:18:21;;;;;;;3.75;1.52;;;20.80;55.50;;;;;;5065708;28;20122;-60
2021/11/17 12:20:52;;;;;;;4.00;0.88;;;20.80;55.70;;;;;;5071715;28;20475;-64
2021/11/17 12:23:24;;;;;;;2.38;0.80;;;20.90;55.90;;;;;;5070731;28;20044;-60
2021/11/17 12:26:00;;;;;;;5.55;1.55;;;20.90;56.20;;;;;;5079402;28;20772;-62
2021/11/17 12:28:29;;;;;;;3.83;1.13;;;20.90;56.10;;;;;;5067948;28;20419;-60
2021/11/17 12:30:59;;;;;;;8.90;1.25;;;21.00;56.10;;;;;;5065153;28;20487;-63
2021/11/17 12:33:34;;;;;;;6.22;1.20;;;21.00;56.10;;;;;;5068312;28;20053;-67
2021/11/17 12:36:08;;;;;;;6.40;1.50;;;21.00;56.10;;;;;;5071067;28;20106;-63
2021/11/17 12:38:36;;;;;;;5.53;1.15;;;21.00;56.10;;;;;;5068738;28;20058;-60
2021/11/17 12:41:11;;;;;;;3.38;2.17;;;21.00;55.90;;;;;;5047994;28;20044;-57
2021/11/17 12:43:41;;;;;;;2.90;1.20;;;21.10;55.90;;;;;;5069022;28;20040;-58
2021/11/17 12:46:20;;;;;;;6.70;1.20;;;21.10;55.60;;;;;;5078993;28;20040;-61
2021/11/17 12:48:51;;;;;;;3.53;0.70;;;21.10;55.40;;;;;;5068000;28;20083;-61
2021/11/17 12:51:30;;;;;;;3.90;1.13;;;21.10;55.20;;;;;;5065858;28;20048;-69
2021/11/17 12:54:13;;;;;;;5.35;1.08;;;21.10;55.10;;;;;;5066985;28;20055;-66
2021/11/17 12:56:47;;;;;;;9.77;1.05;;;21.10;55.20;;;;;;5068421;28;20040;-61
2021/11/17 12:59:17;;;;;;;2.40;0.88;;;21.10;55.10;;;;;;5054744;28;20045;-56
2021/11/17 13:01:47;;;;;;;4.35;0.85;;;21.10;55.30;;;;;;5071984;28;20127;-63
2021/11/17 13:04:25;;;;;;;2.35;1.50;;;21.00;55.40;;;;;;5063551;28;20586;-62
2021/11/17 13:06:56;;;;;;;7.72;1.00;;;21.00;55.50;;;;;;5066662;28;20036;-66
2021/11/17 13:09:27;;;;;;;6.28;1.00;;;21.00;55.70;;;;;;5070655;28;20500;-70
2021/11/17 13:12:18;;;;;;;5.55;0.68;;;21.00;56.00;;;;;;5073234;28;20090;-62
2021/11/17 13:14:56;;;;;;;3.97;1.67;;;21.00;56.10;;;;;;5063942;28;20132;-63
2021/11/17 13:17:26;;;;;;;9.40;1.15;;;21.00;56.80;;;;;;5051750;28;20040;-64
2021/11/17 13:19:55;;;;;;;7.90;1.48;;;21.00;56.60;;;;;;5070393;28;20127;-64
2021/11/17 13:22:30;;;;;;;3.03;0.80;;;20.90;57.20;;;;;;5062989;28;20037;-64
2021/11/17 13:25:19;;;;;;;4.10;0.68;;;20.90;56.70;;;;;;5063547;28;20058;-71
2021/11/17 13:27:51;;;;;;;3.58;0.75;;;20.90;56.70;;;;;;5063973;28;20082;-69
2021/11/17 13:30:33;;;;;;;5.10;0.68;;;20.90;57.00;;;;;;5072237;28;20086;-60
2021/11/17 13:33:18;;;;;;;7.15;1.27;;;20.90;57.00;;;;;;5069568;28;20044;-63
2021/11/17 13:35:45;;;;;;;2.85;1.30;;;20.90;57.70;;;;;;5067710;28;20044;-69
2021/11/17 13:38:17;;;;;;;2.85;0.45;;;20.80;57.20;;;;;;5057164;28;20040;-61
2021/11/17 13:40:48;;;;;;;7.45;0.60;;;20.90;57.50;;;;;;5075755;28;20123;-62
2021/11/17 13:43:18;;;;;;;9.07;0.63;;;20.80;57.40;;;;;;5068778;28;20446;-64
2021/11/17 13:45:47;;;;;;;4.00;1.02;;;20.80;57.50;;;;;;5065562;28;20132;-61
2021/11/17 13:48:20;;;;;;;6.45;0.40;;;20.80;57.50;;;;;;5072292;28;20127;-64
2021/11/17 13:50:49;;;;;;;3.80;1.23;;;20.80;57.60;;;;;;5065986;28;20575;-68
2021/11/17 13:53:20;;;;;;;6.28;0.88;;;20.80;57.60;;;;;;5077693;28;20234;-59
2021/11/17 13:55:53;;;;;;;6.30;0.93;;;20.80;57.80;;;;;;5045699;28;20048;-61
2021/11/17 13:58:22;;;;;;;5.15;0.55;;;20.80;57.80;;;;;;5066886;28;20037;-58
2021/11/17 14:00:55;;;;;;;4.13;0.65;;;20.70;57.80;;;;;;5060624;28;20465;-62
2021/11/17 14:03:22;;;;;;;4.85;0.40;;;20.70;57.80;;;;;;5068664;28;20048;-60
2021/11/17 14:05:53;;;;;;;0.75;0.65;;;20.70;57.80;;;;;;5077315;28;20036;-66
2021/11/17 14:08:24;;;;;;;3.38;0.40;;;20.70;57.90;;;;;;5037363;28;20055;-63
2021/11/17 14:11:09;;;;;;;5.05;1.15;;;20.70;57.90;;;;;;5071339;28;20036;-62
2021/11/17 14:13:38;;;;;;;9.00;0.30;;;20.70;57.90;;;;;;5066113;28;20492;-53
2021/11/17 14:16:11;;;;;;;2.33;0.80;;;20.70;58.00;;;;;;5063587;28;20056;-57
2021/11/17 14:18:39;;;;;;;2.05;0.40;;;20.70;58.00;;;;;;5064476;28;20138;-65
2021/11/17 14:21:10;;;;;;;1.45;0.45;;;20.70;58.10;;;;;;5065603;28;20044;-64
2021/11/17 14:23:38;;;;;;;7.30;0.85;;;20.70;58.00;;;;;;5064949;28;20044;-63
2021/11/17 14:26:08;;;;;;;2.63;0.32;;;20.70;57.90;;;;;;5061148;28;20045;-64
2021/11/17 14:28:40;;;;;;;3.15;0.90;;;20.70;57.90;;;;;;5059944;28;20040;-61
2021/11/17 14:31:12;;;;;;;3.50;0.70;;;20.70;57.90;;;;;;5066341;28;20106;-61
2021/11/17 14:33:44;;;;;;;11.38;1.38;;;20.70;57.90;;;;;;5079593;28;20562;-60
2021/11/17 14:36:12;;;;;;;8.18;0.45;;;20.70;57.90;;;;;;5074448;28;20044;-56
2021/11/17 14:38:40;;;;;;;6.05;1.58;;;20.70;57.90;;;;;;5067695;28;20068;-61
2021/11/17 14:41:08;;;;;;;2.67;0.40;;;20.70;57.90;;;;;;5051325;28;20585;-63
2021/11/17 14:43:39;;;;;;;7.20;0.75;;;20.70;57.90;;;;;;5063322;28;20033;-65
2021/11/17 14:46:06;;;;;;;2.30;0.50;;;20.70;58.00;;;;;;5053941;28;20044;-59
2021/11/17 14:48:33;;;;;;;1.35;0.30;;;20.70;57.90;;;;;;5064341;28;20171;-63
2021/11/17 14:51:02;;;;;;;3.78;0.82;;;20.70;58.00;;;;;;5061474;28;20045;-67
2021/11/17 14:53:30;;;;;;;5.32;0.70;;;20.70;58.00;;;;;;5072851;28;20554;-64
2021/11/17 14:55:57;;;;;;;3.83;0.50;;;20.80;58.10;;;;;;5065350;28;20043;-61
2021/11/17 14:58:26;;;;;;;4.55;0.50;;;20.80;58.10;;;;;;5035465;28;20151;-53
2021/11/17 15:00:57;;;;;;;8.60;0.63;;;20.80;58.20;;;;;;5061772;28;20156;-58
2021/11/17 15:03:25;;;;;;;2.40;0.40;;;20.80;58.20;;;;;;5065658;28;20179;-53
2021/11/17 15:05:52;;;;;;;2.05;0.40;;;20.70;58.20;;;;;;5065737;28;20139;-54
2021/11/17 15:08:19;;;;;;;4.97;0.50;;;20.70;58.10;;;;;;5055320;28;20071;-54
2021/11/17 15:10:47;;;;;;;7.05;0.90;;;20.70;58.20;;;;;;5049883;28;20048;-55
2021/11/17 15:13:15;;;;;;;4.85;0.20;;;20.70;58.30;;;;;;5073455;28;20631;-61
2021/11/17 15:15:45;;;;;;;3.65;0.70;;;20.80;58.20;;;;;;5061040;28;20059;-61
2021/11/17 15:18:16;;;;;;;4.32;0.45;;;20.80;58.10;;;;;;5068435;28;20131;-62
2021/11/17 15:20:43;;;;;;;3.72;0.55;;;20.90;58.10;;;;;;5065618;28;20808;-62
2021/11/17 15:23:11;;;;;;;3.55;0.30;;;20.90;58.00;;;;;;5072022;28;20041;-63
2021/11/17 15:25:41;;;;;;;8.90;0.90;;;20.90;57.80;;;;;;5065261;28;20105;-62
2021/11/17 15:28:12;;;;;;;4.85;0.55;;;20.90;57.70;;;;;;5074383;28;20041;-62
2021/11/17 15:30:46;;;;;;;4.70;0.63;;;20.90;57.50;;;;;;5074181;28;20144;-62
2021/11/17 15:33:14;;;;;;;3.78;0.25;;;20.90;57.40;;;;;;5071044;28;20139;-60
2021/11/17 15:35:41;;;;;;;7.90;0.82;;;20.90;57.30;;;;;;5067702;28;20150;-59
2021/11/17 15:38:10;;;;;;;5.97;0.20;;;20.90;57.30;;;;;;5068012;28;20041;-60
2021/11/17 15:40:41;;;;;;;2.28;0.47;;;20.90;57.20;;;;;;5066191;28;20032;-59
2021/11/17 15:43:09;;;;;;;4.10;0.20;;;20.90;57.20;;;;;;5073041;28;20068;-61
2021/11/17 15:45:37;;;;;;;2.67;0.38;;;20.90;57.10;;;;;;5069116;28;20125;-60
2021/11/17 15:48:06;;;;;;;5.40;0.30;;;21.00;57.10;;;;;;5065299;28;20064;-58
2021/11/17 15:50:38;;;;;;;2.05;0.20;;;21.00;57.10;;;;;;5068644;28;20047;-63
2021/11/17 15:53:05;;;;;;;13.40;0.35;;;21.00;57.60;;;;;;5069335;28;20060;-56
2021/11/17 15:55:33;;;;;;;6.13;0.93;;;21.00;56.50;;;;;;5056797;28;20130;-57
2021/11/17 15:58:01;;;;;;;3.20;0.85;;;21.00;55.20;;;;;;5070222;28;20041;-57
2021/11/17 16:00:29;;;;;;;5.90;0.30;;;21.00;53.70;;;;;;5048138;28;20065;-67
2021/11/17 16:02:56;;;;;;;6.03;0.40;;;21.00;53.00;;;;;;5061534;28;20064;-68